Time;durP1;ratioP1;P1;durP2;ratioP2;P2;SDS_P1;SDS_P2;PMS_P1;PMS_P2;Temp;Humidity;BMP_temperature;BMP_pressure;BME280_temperature;BME280_humidity;BME280_pressure;Samples;Min_cycle;Max_cycle;Signal;HPM_P1;HPM_P2
2023/05/08 00:02:23;;;;;;;1999.90;999.90;;;14.80;99.90;;;;;;6663444;89;20271;-76
2023/05/08 00:12:24;;;;;;;1999.90;999.90;;;14.80;99.90;;;;;;6671254;89;20657;-77
2023/05/08 00:22:24;;;;;;;1999.90;999.90;;;14.90;99.90;;;;;;6670612;89;20192;-76
2023/05/08 00:32:25;;;;;;;1999.90;999.90;;;14.80;99.90;;;;;;6658320;89;20219;-76
2023/05/08 00:42:25;;;;;;;1999.90;999.90;;;14.80;99.90;;;;;;6664494;89;20235;-77
2023/05/08 00:52:30;;;;;;;1999.90;999.90;;;14.80;99.90;;;;;;6666553;89;20209;-77
2023/05/08 01:02:31;;;;;;;1999.90;999.90;;;14.80;99.90;;;;;;6666003;89;20192;-78
2023/05/08 01:12:53;;;;;;;1999.90;999.90;;;14.80;99.90;;;;;;6662784;88;20188;-77
2023/05/08 01:23:02;;;;;;;1999.90;999.90;;;14.80;99.90;;;;;;6659154;89;20239;-77
2023/05/08 01:33:16;;;;;;;1999.90;999.90;;;14.80;99.90;;;;;;6659430;88;20738;-78
2023/05/08 01:43:51;;;;;;;1999.90;999.90;;;14.80;99.90;;;;;;6666736;88;20235;-78
2023/05/08 01:53:56;;;;;;;1999.90;999.90;;;14.80;99.90;;;;;;6657138;89;20262;-78
2023/05/08 02:03:58;;;;;;;;;;;14.80;99.90;;;;;;6663850;89;20289;-79
2023/05/08 02:14:00;;;;;;;1999.90;999.90;;;14.70;99.90;;;;;;6656699;89;20068;-77
2023/05/08 02:24:03;;;;;;;1999.90;999.90;;;14.70;99.90;;;;;;6663234;89;20208;-78
2023/05/08 02:34:04;;;;;;;1999.90;999.90;;;14.70;99.90;;;;;;6669424;88;20281;-77
2023/05/08 02:44:05;;;;;;;1999.90;999.90;;;14.60;99.90;;;;;;6667363;89;20651;-78
2023/05/08 02:54:34;;;;;;;1999.90;999.90;;;14.60;99.90;;;;;;6664656;89;20209;-79
2023/05/08 03:04:40;;;;;;;1999.90;999.90;;;14.60;99.90;;;;;;6657299;89;20202;-77
2023/05/08 03:14:48;;;;;;;1999.90;999.90;;;14.60;99.90;;;;;;6675638;89;20187;-79
2023/05/08 03:24:49;;;;;;;1999.90;999.90;;;14.50;99.90;;;;;;6667501;89;20209;-77
2023/05/08 03:34:51;;;;;;;1999.90;999.90;;;14.50;99.90;;;;;;6663519;89;20282;-77
2023/05/08 03:44:53;;;;;;;1999.90;999.90;;;14.50;99.90;;;;;;6664952;89;20216;-77
2023/05/08 03:54:53;;;;;;;1999.90;999.90;;;14.70;99.90;;;;;;6657328;89;20589;-77
2023/05/08 04:05:08;;;;;;;1999.90;999.90;;;14.60;99.90;;;;;;6658991;77;20755;-76
2023/05/08 04:15:12;;;;;;;1999.90;999.90;;;14.60;99.90;;;;;;6651266;89;20310;-77
2023/05/08 04:25:16;;;;;;;1999.90;999.90;;;14.60;99.90;;;;;;6642033;89;20172;-76
2023/05/08 04:35:17;;;;;;;1999.90;999.90;;;14.60;99.90;;;;;;6652891;89;20208;-76
2023/05/08 04:45:17;;;;;;;1999.90;999.90;;;14.60;99.90;;;;;;6651128;89;20221;-76
2023/05/08 04:55:18;;;;;;;1999.90;999.90;;;14.60;99.90;;;;;;6647051;89;20200;-76
2023/05/08 05:05:18;;;;;;;1999.90;999.90;;;14.50;99.90;;;;;;6657206;89;20200;-77
2023/05/08 05:15:19;;;;;;;1999.90;999.90;;;14.40;99.90;;;;;;6651135;89;20215;-77
2023/05/08 05:25:20;;;;;;;1999.90;999.90;;;14.20;99.90;;;;;;6646090;89;20304;-76
2023/05/08 05:35:20;;;;;;;1999.90;999.90;;;14.10;99.90;;;;;;6647582;89;20413;-77
2023/05/08 05:45:21;;;;;;;1999.90;999.90;;;14.00;99.90;;;;;;6649718;89;20184;-76
2023/05/08 05:55:21;;;;;;;1999.90;999.90;;;14.00;99.90;;;;;;6648004;89;20758;-77
2023/05/08 06:05:22;;;;;;;1999.90;999.90;;;14.10;99.90;;;;;;6648376;89;20316;-77
2023/05/08 06:15:23;;;;;;;1999.90;999.90;;;14.30;99.90;;;;;;6649908;89;20307;-76
2023/05/08 06:25:24;;;;;;;1999.90;999.90;;;14.50;99.90;;;;;;6647445;89;20233;-77
2023/05/08 06:35:25;;;;;;;1999.90;999.90;;;14.30;99.90;;;;;;6650437;89;20258;-76
2023/05/08 06:45:25;;;;;;;1999.90;999.90;;;14.30;99.90;;;;;;6643388;89;20226;-76
2023/05/08 06:55:26;;;;;;;1999.90;999.90;;;14.30;99.90;;;;;;6643868;89;20316;-76
2023/05/08 07:05:26;;;;;;;1999.90;999.90;;;14.60;99.90;;;;;;6646850;89;20200;-76
2023/05/08 07:15:27;;;;;;;1999.90;999.90;;;14.40;99.90;;;;;;6648480;89;20260;-76
2023/05/08 07:25:28;;;;;;;1999.90;999.90;;;14.50;99.90;;;;;;6641039;89;20553;-77
2023/05/08 07:35:28;;;;;;;1999.90;999.90;;;14.50;99.90;;;;;;6646719;89;20205;-76
2023/05/08 07:45:29;;;;;;;1999.90;999.90;;;14.60;99.90;;;;;;6645290;89;20244;-77
2023/05/08 07:55:30;;;;;;;1999.90;999.90;;;14.70;99.90;;;;;;6641969;89;20252;-77
2023/05/08 08:05:30;;;;;;;1999.90;999.90;;;14.70;99.90;;;;;;6646012;89;20191;-76
2023/05/08 08:15:31;;;;;;;1999.90;999.90;;;14.90;99.90;;;;;;6647066;89;20473;-77
2023/05/08 08:25:31;;;;;;;1999.90;999.90;;;15.10;99.90;;;;;;6643797;89;20224;-77
2023/05/08 08:35:32;;;;;;;1999.90;999.90;;;15.20;99.90;;;;;;6645995;89;20200;-76
2023/05/08 08:45:33;;;;;;;1999.90;999.90;;;15.30;99.90;;;;;;6654424;89;20189;-77
2023/05/08 08:55:38;;;;;;;1999.90;999.90;;;15.30;99.90;;;;;;6646527;89;20190;-77
2023/05/08 09:05:39;;;;;;;1999.90;999.90;;;15.50;99.90;;;;;;6642888;89;20211;-76
2023/05/08 09:15:40;;;;;;;1999.90;999.90;;;15.60;99.90;;;;;;6646680;89;20214;-76
2023/05/08 09:25:45;;;;;;;1999.90;999.90;;;15.60;99.90;;;;;;6645137;89;20236;-76
2023/05/08 09:35:49;;;;;;;;;;;15.60;99.90;;;;;;6649914;89;20200;-77
2023/05/08 09:45:49;;;;;;;1999.90;999.90;;;15.70;99.90;;;;;;6648552;89;20134;-77
2023/05/08 09:55:50;;;;;;;1999.90;999.90;;;15.90;99.90;;;;;;6643021;89;20341;-76
2023/05/08 10:15:56;;;;;;;1999.90;999.90;;;15.90;99.90;;;;;;6682918;88;20214;-77
2023/05/08 10:26:06;;;;;;;1999.90;999.90;;;15.80;99.90;;;;;;6680156;88;20233;-77
2023/05/08 10:36:08;;;;;;;1999.90;999.90;;;15.60;99.90;;;;;;6683212;88;20199;-78
2023/05/08 10:46:29;;;;;;;1999.90;999.90;;;15.50;99.90;;;;;;6675590;88;20605;-80
2023/05/08 10:56:30;;;;;;;1999.90;999.90;;;15.60;99.90;;;;;;6681400;88;20238;-77
2023/05/08 11:06:47;;;;;;;1999.90;999.90;;;15.80;99.90;;;;;;6672798;88;20274;-78
2023/05/08 11:16:58;;;;;;;1999.90;999.90;;;16.10;99.90;;;;;;6676426;88;20571;-79
2023/05/08 11:26:59;;;;;;;1999.90;999.90;;;16.30;99.90;;;;;;6672356;88;20285;-78
2023/05/08 11:37:01;;;;;;;1999.90;999.90;;;16.10;99.90;;;;;;6682449;89;20209;-79
2023/05/08 11:47:02;;;;;;;1999.90;999.90;;;16.20;99.90;;;;;;6674455;88;20254;-78
2023/05/08 11:57:03;;;;;;;1999.90;999.90;;;16.50;99.90;;;;;;6682046;88;20773;-79
2023/05/08 12:07:05;;;;;;;1999.90;999.90;;;17.00;99.90;;;;;;6668877;89;20224;-78
2023/05/08 12:17:05;;;;;;;1999.90;999.90;;;17.60;99.90;;;;;;6674055;89;20322;-78
2023/05/08 12:27:06;;;;;;;1999.90;999.90;;;18.00;99.90;;;;;;6676482;88;20199;-77
2023/05/08 12:37:07;;;;;;;1999.90;999.90;;;19.10;99.90;;;;;;6676412;88;20180;-78
2023/05/08 12:47:07;;;;;;;1999.90;999.90;;;19.70;99.90;;;;;;6673530;88;20298;-77
2023/05/08 12:57:10;;;;;;;1999.90;999.90;;;20.00;99.90;;;;;;6673925;88;20206;-77
2023/05/08 13:07:11;;;;;;;1999.90;999.90;;;21.00;99.90;;;;;;6673767;88;20217;-77
2023/05/08 13:17:17;;;;;;;1999.90;999.90;;;20.50;99.90;;;;;;6679492;88;20203;-77
2023/05/08 13:27:17;;;;;;;1999.90;999.90;;;20.40;99.90;;;;;;6677259;88;20604;-77
2023/05/08 13:37:18;;;;;;;1999.90;999.90;;;20.30;99.90;;;;;;6676978;89;20388;-77
2023/05/08 13:47:19;;;;;;;1999.90;999.90;;;20.70;99.90;;;;;;6675844;88;20303;-78
2023/05/08 13:57:19;;;;;;;1999.90;999.90;;;21.10;99.90;;;;;;6675423;89;20199;-77
2023/05/08 14:07:20;;;;;;;1999.90;999.90;;;22.40;99.90;;;;;;6674611;88;20215;-78
2023/05/08 14:17:20;;;;;;;1999.90;999.90;;;21.70;99.90;;;;;;6675153;88;20542;-78
2023/05/08 14:27:21;;;;;;;1999.90;999.90;;;21.20;99.90;;;;;;6677013;88;20192;-78
2023/05/08 14:37:21;;;;;;;1999.90;999.90;;;21.90;99.90;;;;;;6685141;88;20246;-80
2023/05/08 14:47:22;;;;;;;1999.90;999.90;;;21.60;99.90;;;;;;6680457;88;20223;-78
2023/05/08 14:57:23;;;;;;;1999.90;999.90;;;22.30;99.90;;;;;;6676958;88;20207;-78
2023/05/08 15:07:23;;;;;;;1999.90;999.90;;;21.50;99.90;;;;;;6676128;88;20322;-77
2023/05/08 15:17:24;;;;;;;1999.90;999.90;;;21.70;99.90;;;;;;6673698;88;20196;-77
2023/05/08 15:27:24;;;;;;;1999.90;999.90;;;21.80;99.90;;;;;;6683284;88;20706;-78
2023/05/08 15:37:25;;;;;;;1999.90;999.90;;;21.50;99.90;;;;;;6674236;88;20234;-77
2023/05/08 15:47:26;;;;;;;1999.90;999.90;;;21.50;99.90;;;;;;6670715;88;20190;-78
2023/05/08 15:57:27;;;;;;;1999.90;999.90;;;21.30;99.90;;;;;;6676805;89;20201;-78
2023/05/08 16:07:27;;;;;;;1999.90;999.90;;;20.70;99.90;;;;;;6679953;78;20224;-78
2023/05/08 16:17:28;;;;;;;1999.90;999.90;;;20.90;99.90;;;;;;6672490;89;20187;-78
2023/05/08 16:27:28;;;;;;;1999.90;999.90;;;20.70;99.90;;;;;;6672906;89;20288;-78
2023/05/08 16:37:29;;;;;;;1999.90;999.90;;;20.40;99.90;;;;;;6674942;89;20232;-77
2023/05/08 16:47:29;;;;;;;1999.90;999.90;;;19.80;99.90;;;;;;6672426;89;20746;-78
2023/05/08 16:57:30;;;;;;;1999.90;999.90;;;19.70;99.90;;;;;;6678317;89;20196;-78
2023/05/08 17:07:31;;;;;;;1999.90;999.90;;;19.80;99.90;;;;;;6673265;89;20192;-77
2023/05/08 17:17:31;;;;;;;1999.90;999.90;;;19.60;99.90;;;;;;6673106;89;21024;-77
2023/05/08 17:27:34;;;;;;;1999.90;999.90;;;19.40;99.90;;;;;;6671721;89;20723;-78
2023/05/08 17:37:35;;;;;;;1999.90;999.90;;;19.20;99.90;;;;;;6672421;89;20192;-78
2023/05/08 17:47:36;;;;;;;1999.90;999.90;;;19.10;99.90;;;;;;6673961;89;20198;-77
2023/05/08 17:57:36;;;;;;;1999.90;999.90;;;19.00;99.90;;;;;;6673579;89;20192;-78
2023/05/08 18:07:37;;;;;;;1999.90;999.90;;;18.70;99.90;;;;;;6677016;89;20212;-80
2023/05/08 18:17:38;;;;;;;1999.90;999.90;;;18.70;99.90;;;;;;6676330;89;20231;-81
2023/05/08 18:27:39;;;;;;;1999.90;999.90;;;18.50;99.90;;;;;;6672481;89;20706;-79
2023/05/08 18:37:40;;;;;;;1999.90;999.90;;;18.50;99.90;;;;;;6670195;89;20199;-79
2023/05/08 18:47:40;;;;;;;1999.90;999.90;;;18.30;99.90;;;;;;6670429;89;20183;-79
2023/05/08 18:57:41;;;;;;;1999.90;999.90;;;18.00;99.90;;;;;;6669949;89;20201;-78
2023/05/08 19:07:42;;;;;;;1999.90;999.90;;;17.90;99.90;;;;;;6671146;89;20219;-79
2023/05/08 19:17:42;;;;;;;1999.90;999.90;;;17.70;99.90;;;;;;6670958;89;20228;-78
2023/05/08 19:27:43;;;;;;;1999.90;999.90;;;17.60;99.90;;;;;;6677753;89;20557;-79
2023/05/08 19:37:44;;;;;;;1999.90;999.90;;;17.40;99.90;;;;;;6674797;89;20196;-79
2023/05/08 19:47:50;;;;;;;1999.90;999.90;;;17.30;99.90;;;;;;6675579;89;20283;-80
2023/05/08 19:57:51;;;;;;;1999.90;999.90;;;17.10;99.90;;;;;;6677754;88;20206;-79
2023/05/08 20:07:51;;;;;;;1999.90;999.90;;;17.00;99.90;;;;;;6673914;89;20289;-78
2023/05/08 20:17:53;;;;;;;1999.90;999.90;;;16.90;99.90;;;;;;6672870;89;20237;-77
2023/05/08 20:27:53;;;;;;;1999.90;999.90;;;16.90;99.90;;;;;;6681603;89;20218;-80
2023/05/08 20:37:54;;;;;;;1999.90;999.90;;;16.60;99.90;;;;;;6674735;89;20246;-80
2023/05/08 20:47:54;;;;;;;1999.90;999.90;;;16.50;99.90;;;;;;6674524;89;20210;-78
2023/05/08 20:57:55;;;;;;;1999.90;999.90;;;16.40;99.90;;;;;;6672890;89;20230;-79
2023/05/08 21:07:58;;;;;;;1999.90;999.90;;;16.30;99.90;;;;;;6675631;89;20748;-78
2023/05/08 21:17:59;;;;;;;1999.90;999.90;;;16.30;99.90;;;;;;6672544;89;20199;-79
2023/05/08 21:28:00;;;;;;;1999.90;999.90;;;16.20;99.90;;;;;;6675675;88;20291;-78
2023/05/08 21:38:00;;;;;;;1999.90;999.90;;;16.20;99.90;;;;;;6676334;89;20257;-78
2023/05/08 21:48:01;;;;;;;1999.90;999.90;;;16.10;99.90;;;;;;6675953;89;20184;-77
2023/05/08 21:58:02;;;;;;;1999.90;999.90;;;16.00;99.90;;;;;;6675009;88;20255;-79
2023/05/08 22:08:03;;;;;;;1999.90;999.90;;;15.90;99.90;;;;;;6668405;89;20209;-78
2023/05/08 22:18:03;;;;;;;1999.90;999.90;;;15.90;99.90;;;;;;6675508;88;20197;-79
2023/05/08 22:28:04;;;;;;;1999.90;999.90;;;15.80;99.90;;;;;;6672530;88;21193;-78
2023/05/08 22:38:04;;;;;;;1999.90;999.90;;;15.70;99.90;;;;;;6666216;89;20283;-78
2023/05/08 22:48:05;;;;;;;1999.90;999.90;;;15.70;99.90;;;;;;6665842;89;20215;-77
2023/05/08 22:58:06;;;;;;;1999.90;999.90;;;15.60;99.90;;;;;;6670916;89;20249;-77
2023/05/08 23:08:06;;;;;;;1999.90;999.90;;;15.60;99.90;;;;;;6667107;88;20188;-76
2023/05/08 23:18:07;;;;;;;1999.90;999.90;;;15.50;99.90;;;;;;6667335;88;20684;-77
2023/05/08 23:28:07;;;;;;;1999.90;999.90;;;15.50;99.90;;;;;;6665781;89;20195;-78
2023/05/08 23:38:08;;;;;;;1999.90;999.90;;;15.40;99.90;;;;;;6665817;89;20562;-78
2023/05/08 23:48:09;;;;;;;1999.90;999.90;;;15.30;99.90;;;;;;6665578;89;20207;-77
2023/05/08 23:58:09;;;;;;;1999.90;999.90;;;15.30;99.90;;;;;;6669786;89;20199;-77
